Terminal Aerodrome Forecast
Issued by NWS

Current Version | Previous Version | Graphics & Text | Print | Product List | Glossary On
Versions: 1 2 3 4 5 6 7 8 9 10 11 12 13 14 15
724
FTUS41 KILN 232335 AAA
TAFLUK
TAF AMD
KLUK 232335Z 2400/2424 05007KT P6SM BKN200
     FM240800 04005KT P6SM SCT250
     FM241700 07009KT P6SM BKN050=

USA.gov is the U.S. government's official web portal to all federal, state and local government web resources and services.